createdAt,value
2023-03-29T00:00:23.431Z,9.27
2023-03-29T00:03:11.029Z,8.35
2023-03-29T00:05:39.468Z,9.43
2023-03-29T00:08:07.246Z,8.95
2023-03-29T00:10:35.348Z,9.20
2023-03-29T00:13:03.169Z,8.73
2023-03-29T00:15:30.842Z,8.55
2023-03-29T00:17:58.327Z,8.35
2023-03-29T00:20:26.097Z,8.80
2023-03-29T00:22:53.483Z,10.40
2023-03-29T00:25:21.156Z,9.77
2023-03-29T00:27:48.602Z,8.82
2023-03-29T00:30:16.479Z,10.52
2023-03-29T00:32:43.999Z,9.65
2023-03-29T00:35:30.141Z,9.98
2023-03-29T00:37:59.635Z,10.02
2023-03-29T00:40:27.449Z,8.98
2023-03-29T00:42:54.794Z,9.52
2023-03-29T00:45:23.733Z,8.45
2023-03-29T00:47:52.946Z,12.35
2023-03-29T00:50:38.384Z,8.60
2023-03-29T00:53:10.581Z,10.43
2023-03-29T00:55:48.804Z,10.02
2023-03-29T00:58:19.148Z,9.73
2023-03-29T01:00:50.225Z,8.70
2023-03-29T01:03:20.659Z,10.52
2023-03-29T01:05:49.684Z,10.65
2023-03-29T01:08:20.790Z,11.38
2023-03-29T01:10:51.417Z,10.73
2023-03-29T01:13:25.440Z,9.88
2023-03-29T01:15:53.927Z,11.65
2023-03-29T01:18:21.349Z,10.23
2023-03-29T01:21:07.219Z,10.48
2023-03-29T01:23:53.050Z,11.40
2023-03-29T01:26:33.185Z,10.80
2023-03-29T01:29:22.363Z,12.23
2023-03-29T01:31:59.955Z,10.52
2023-03-29T01:34:31.622Z,11.40
2023-03-29T01:37:11.492Z,11.60
2023-03-29T01:39:38.990Z,11.32
2023-03-29T01:42:25.295Z,12.75
2023-03-29T01:44:58.984Z,12.15
2023-03-29T01:47:38.640Z,12.23
2023-03-29T01:50:20.462Z,11.30
2023-03-29T01:52:57.796Z,12.45
2023-03-29T01:55:36.083Z,12.70
2023-03-29T01:58:05.448Z,14.25
2023-03-29T02:00:33.362Z,14.40
2023-03-29T02:03:02.700Z,16.20
2023-03-29T02:05:30.854Z,15.65
2023-03-29T02:08:00.307Z,14.30
2023-03-29T02:10:28.023Z,12.57
2023-03-29T02:12:55.765Z,14.38
2023-03-29T02:15:23.345Z,12.05
2023-03-29T02:17:51.540Z,13.65
2023-03-29T02:20:24.739Z,13.73
2023-03-29T02:22:58.511Z,12.48
2023-03-29T02:25:26.267Z,12.55
2023-03-29T02:27:54.182Z,13.77
2023-03-29T02:30:22.435Z,11.82
2023-03-29T02:33:02.250Z,10.43
2023-03-29T02:35:32.760Z,11.00
2023-03-29T02:38:04.573Z,11.77
2023-03-29T02:40:32.686Z,11.40
2023-03-29T02:43:01.395Z,12.10
2023-03-29T02:45:29.590Z,10.18
2023-03-29T02:48:00.151Z,11.25
2023-03-29T02:50:29.375Z,10.85
2023-03-29T02:52:59.742Z,12.35
2023-03-29T02:55:29.000Z,11.30
2023-03-29T02:57:56.884Z,12.95
2023-03-29T03:00:24.267Z,11.85
2023-03-29T03:02:52.227Z,11.43
2023-03-29T03:05:19.853Z,10.48
2023-03-29T03:07:47.680Z,11.45
2023-03-29T03:10:15.140Z,10.55
2023-03-29T03:12:42.876Z,10.05
2023-03-29T03:15:10.505Z,9.23
2023-03-29T03:17:38.401Z,9.00
2023-03-29T03:20:09.477Z,9.35
2023-03-29T03:22:37.207Z,8.80
2023-03-29T03:25:04.846Z,9.23
2023-03-29T03:27:32.590Z,8.73
2023-03-29T03:29:59.946Z,8.90
2023-03-29T03:32:27.606Z,8.82
2023-03-29T03:34:55.142Z,8.43
2023-03-29T03:37:22.971Z,7.10
2023-03-29T03:39:50.308Z,8.68
2023-03-29T03:42:18.023Z,8.57
2023-03-29T03:44:47.484Z,9.55
2023-03-29T03:47:15.427Z,8.10
2023-03-29T03:49:42.834Z,8.20
2023-03-29T03:52:10.673Z,9.48
2023-03-29T03:54:38.047Z,9.27
2023-03-29T03:57:05.725Z,8.93
2023-03-29T03:59:33.054Z,8.20
2023-03-29T04:02:00.752Z,9.57
2023-03-29T04:04:28.246Z,9.45
2023-03-29T04:06:56.057Z,9.70
2023-03-29T04:09:23.434Z,7.40
2023-03-29T04:11:51.125Z,8.80
2023-03-29T04:14:18.477Z,7.70
2023-03-29T04:16:46.172Z,9.43
2023-03-29T04:19:13.620Z,7.45
2023-03-29T04:21:41.334Z,9.75
2023-03-29T04:24:08.734Z,8.82
2023-03-29T04:26:36.453Z,10.18
2023-03-29T04:29:03.880Z,7.40
2023-03-29T04:31:31.685Z,8.10
2023-03-29T04:34:00.417Z,8.85
2023-03-29T04:36:28.392Z,8.00
2023-03-29T04:38:55.826Z,9.07
2023-03-29T04:41:23.490Z,8.38
2023-03-29T04:43:50.830Z,8.07
2023-03-29T04:46:18.614Z,10.20
2023-03-29T04:48:46.078Z,12.55
2023-03-29T04:51:13.719Z,11.93
2023-03-29T04:53:41.113Z,10.68
2023-03-29T04:56:08.898Z,10.60
2023-03-29T04:58:36.249Z,9.43
2023-03-29T05:01:04.064Z,8.23
2023-03-29T05:03:31.559Z,8.05
2023-03-29T05:06:03.267Z,7.93
2023-03-29T05:08:30.634Z,9.75
2023-03-29T05:10:58.294Z,8.55
2023-03-29T05:13:25.771Z,8.15
2023-03-29T05:15:53.534Z,8.70
2023-03-29T05:18:20.990Z,7.90
2023-03-29T05:20:54.455Z,10.93
2023-03-29T05:23:21.826Z,8.98
2023-03-29T05:25:50.191Z,8.18
2023-03-29T05:28:17.675Z,8.63
2023-03-29T05:30:45.837Z,9.73
2023-03-29T05:33:13.285Z,7.03
2023-03-29T05:35:40.961Z,7.55
2023-03-29T05:38:08.310Z,8.32
2023-03-29T05:40:36.029Z,10.13
2023-03-29T05:43:03.433Z,9.30
2023-03-29T05:45:31.286Z,7.32
2023-03-29T05:47:58.714Z,8.95
2023-03-29T05:50:26.381Z,8.15
2023-03-29T05:52:53.706Z,6.88
2023-03-29T05:55:21.433Z,6.45
2023-03-29T05:57:48.781Z,7.10
2023-03-29T06:00:16.835Z,6.50
2023-03-29T06:02:44.292Z,7.68
2023-03-29T06:05:12.296Z,6.60
2023-03-29T06:07:46.062Z,6.68
2023-03-29T06:10:13.825Z,6.10
2023-03-29T06:12:41.683Z,6.03
2023-03-29T06:15:09.654Z,6.70
2023-03-29T06:17:37.117Z,5.88
2023-03-29T06:20:05.409Z,6.03
2023-03-29T06:22:32.915Z,6.30
2023-03-29T06:25:00.568Z,6.05
2023-03-29T06:27:27.973Z,6.88
2023-03-29T06:29:55.620Z,5.75
2023-03-29T06:32:22.971Z,5.43
2023-03-29T06:34:50.632Z,5.70
2023-03-29T06:37:18.365Z,8.77
2023-03-29T06:39:46.102Z,7.30
2023-03-29T06:42:21.320Z,6.10
2023-03-29T06:44:57.420Z,5.45
2023-03-29T06:47:24.817Z,5.90
2023-03-29T06:49:52.574Z,5.95
2023-03-29T06:52:19.930Z,5.30
2023-03-29T06:54:47.573Z,5.78
2023-03-29T06:57:15.231Z,5.40
2023-03-29T06:59:42.930Z,5.60
2023-03-29T07:02:10.393Z,4.85
2023-03-29T07:04:38.504Z,4.22
2023-03-29T07:07:05.899Z,5.03
2023-03-29T07:09:33.532Z,5.13
2023-03-29T07:12:00.856Z,5.50
2023-03-29T07:14:28.707Z,5.22
2023-03-29T07:16:56.430Z,4.55
2023-03-29T07:19:24.462Z,4.30
2023-03-29T07:21:51.888Z,4.00
2023-03-29T07:24:19.721Z,4.07
2023-03-29T07:27:00.261Z,4.45
2023-03-29T07:29:31.557Z,4.38
2023-03-29T07:31:58.956Z,3.55
2023-03-29T07:34:26.647Z,4.15
2023-03-29T07:36:53.981Z,4.13
2023-03-29T07:39:21.616Z,3.83
2023-03-29T07:41:48.941Z,3.38
2023-03-29T07:44:16.641Z,3.83
2023-03-29T07:46:43.955Z,4.22
2023-03-29T07:49:11.670Z,3.17
2023-03-29T07:51:38.964Z,3.60
2023-03-29T07:54:06.697Z,3.65
2023-03-29T07:56:34.104Z,4.05
2023-03-29T07:59:01.748Z,4.13
2023-03-29T08:01:29.153Z,3.25
2023-03-29T08:03:57.102Z,3.50
2023-03-29T08:06:24.637Z,3.55
2023-03-29T08:08:52.291Z,3.13
2023-03-29T08:11:19.656Z,3.40
2023-03-29T08:13:47.274Z,2.60
2023-03-29T08:16:14.815Z,2.60
2023-03-29T08:18:42.540Z,3.08
2023-03-29T08:21:10.028Z,2.33
2023-03-29T08:23:37.672Z,2.60
2023-03-29T08:26:05.114Z,2.60
2023-03-29T08:28:32.802Z,2.28
2023-03-29T08:31:00.736Z,2.83
2023-03-29T08:33:28.812Z,2.30
2023-03-29T08:35:56.290Z,3.17
2023-03-29T08:38:24.018Z,3.95
2023-03-29T08:40:51.369Z,2.83
2023-03-29T08:43:31.108Z,2.25
2023-03-29T08:46:16.524Z,3.85
2023-03-29T08:48:46.663Z,2.55
2023-03-29T08:51:29.359Z,2.80
2023-03-29T08:54:04.139Z,2.80
2023-03-29T08:56:34.310Z,2.65
2023-03-29T08:59:02.179Z,2.42
2023-03-29T09:01:32.396Z,2.72
2023-03-29T09:04:07.906Z,2.20
2023-03-29T09:06:35.346Z,2.17
2023-03-29T09:09:03.113Z,2.83
2023-03-29T09:11:48.974Z,2.33
2023-03-29T09:14:27.150Z,3.13
2023-03-29T09:17:13.414Z,2.40
2023-03-29T09:19:41.371Z,2.40
2023-03-29T09:22:14.594Z,2.10
2023-03-29T09:24:53.428Z,2.33
2023-03-29T09:27:24.374Z,2.55
2023-03-29T09:30:07.578Z,2.50
2023-03-29T09:32:50.650Z,2.28
2023-03-29T09:35:22.409Z,2.55
2023-03-29T09:37:51.048Z,2.65
2023-03-29T09:40:21.794Z,2.60
2023-03-29T09:42:51.005Z,2.50
2023-03-29T09:45:18.825Z,2.75
2023-03-29T09:47:46.220Z,2.47
2023-03-29T09:50:29.645Z,2.35
2023-03-29T09:52:58.740Z,2.40
2023-03-29T09:55:28.581Z,4.07
2023-03-29T09:57:58.571Z,2.67
2023-03-29T10:00:26.316Z,2.53
2023-03-29T10:02:54.595Z,2.25
2023-03-29T10:05:24.430Z,2.97
2023-03-29T10:07:53.450Z,3.30
2023-03-29T10:10:28.394Z,2.65
2023-03-29T10:13:06.050Z,3.22
2023-03-29T10:15:33.709Z,2.83
2023-03-29T10:18:02.019Z,2.55
2023-03-29T10:20:29.804Z,2.50
2023-03-29T10:22:58.549Z,2.45
2023-03-29T10:25:30.132Z,2.72
2023-03-29T10:28:03.149Z,2.77
2023-03-29T10:30:33.882Z,2.67
2023-03-29T10:33:01.595Z,2.80
2023-03-29T10:35:31.556Z,2.67
2023-03-29T10:37:59.782Z,2.80
2023-03-29T10:40:34.226Z,2.72
2023-03-29T10:43:11.373Z,2.65
2023-03-29T10:45:39.863Z,2.90
2023-03-29T10:48:11.598Z,2.50
2023-03-29T10:53:11.884Z,2.42
2023-03-29T10:55:50.368Z,2.70
2023-03-29T10:58:24.799Z,2.38
2023-03-29T11:00:56.029Z,2.90
2023-03-29T11:03:29.562Z,2.67
2023-03-29T11:06:19.251Z,2.72
2023-03-29T11:09:06.917Z,2.95
2023-03-29T11:12:08.506Z,2.55
2023-03-29T11:14:43.590Z,3.08
2023-03-29T11:17:29.775Z,3.40
2023-03-29T11:20:16.105Z,2.90
2023-03-29T11:22:49.755Z,2.70
2023-03-29T11:25:17.178Z,2.85
2023-03-29T11:27:53.838Z,2.55
2023-03-29T11:30:35.155Z,2.40
2023-03-29T11:33:12.821Z,2.17
2023-03-29T11:35:55.306Z,2.13
2023-03-29T11:38:27.268Z,2.13
2023-03-29T11:41:23.991Z,2.40
2023-03-29T11:43:56.935Z,2.20
2023-03-29T11:46:38.366Z,2.20
2023-03-29T11:49:11.477Z,2.58
2023-03-29T11:51:48.684Z,2.20
2023-03-29T11:54:23.905Z,2.60
2023-03-29T11:57:12.654Z,2.38
2023-03-29T11:59:47.999Z,1.98
2023-03-29T12:02:22.642Z,2.20
2023-03-29T12:04:52.843Z,2.10
2023-03-29T12:07:26.365Z,2.92
2023-03-29T12:09:58.483Z,2.65
2023-03-29T12:12:33.086Z,2.30
2023-03-29T12:15:03.723Z,2.35
2023-03-29T12:17:34.146Z,2.22
2023-03-29T12:20:13.569Z,2.83
2023-03-29T12:22:41.036Z,2.00
2023-03-29T12:25:12.679Z,2.85
2023-03-29T12:27:58.897Z,2.17
2023-03-29T12:30:35.618Z,2.80
2023-03-29T12:33:02.958Z,2.80
2023-03-29T12:35:36.824Z,2.75
2023-03-29T12:38:04.157Z,2.38
2023-03-29T12:40:42.546Z,2.45
2023-03-29T12:43:19.900Z,2.70
2023-03-29T12:45:47.778Z,2.58
2023-03-29T12:48:16.787Z,2.17
2023-03-29T12:50:46.815Z,2.53
2023-03-29T12:53:14.204Z,2.42
2023-03-29T12:55:41.794Z,2.30
2023-03-29T12:58:24.800Z,2.55
2023-03-29T13:01:15.275Z,2.05
2023-03-29T13:03:45.768Z,2.35
2023-03-29T13:06:26.130Z,2.05
2023-03-29T13:09:04.421Z,1.90
2023-03-29T13:11:37.427Z,2.05
2023-03-29T13:14:12.418Z,2.25
2023-03-29T13:16:40.313Z,2.13
2023-03-29T13:19:34.078Z,1.90
2023-03-29T13:22:13.989Z,1.88
2023-03-29T13:25:01.445Z,2.00
2023-03-29T13:27:34.928Z,1.95
2023-03-29T13:30:19.300Z,2.72
2023-03-29T13:32:46.991Z,2.70
2023-03-29T13:35:34.769Z,2.80
2023-03-29T13:38:14.455Z,2.08
2023-03-29T13:40:43.470Z,2.38
2023-03-29T13:43:17.577Z,2.35
2023-03-29T13:45:45.593Z,2.10
2023-03-29T13:48:25.276Z,2.30
2023-03-29T13:50:56.819Z,2.47
2023-03-29T13:53:33.580Z,2.55
2023-03-29T13:56:01.127Z,2.65
2023-03-29T13:58:37.829Z,2.53
2023-03-29T14:01:23.452Z,2.10
2023-03-29T14:03:51.616Z,2.13
2023-03-29T14:06:25.237Z,2.33
2023-03-29T14:08:53.515Z,2.85
2023-03-29T14:11:25.620Z,2.78
2023-03-29T14:13:54.088Z,2.13
2023-03-29T14:16:21.682Z,2.92
2023-03-29T14:18:49.431Z,2.50
2023-03-29T14:21:17.207Z,3.28
2023-03-29T14:23:46.240Z,2.38
2023-03-29T14:26:18.090Z,2.63
2023-03-29T14:28:53.333Z,2.58
2023-03-29T14:31:24.699Z,1.85
2023-03-29T14:33:53.431Z,1.77
2023-03-29T14:36:21.693Z,2.13
2023-03-29T14:38:55.256Z,2.20
2023-03-29T14:41:24.278Z,1.90
2023-03-29T14:43:52.910Z,1.77
2023-03-29T14:46:20.965Z,1.88
2023-03-29T14:48:48.845Z,2.28
2023-03-29T14:51:16.336Z,1.90
2023-03-29T14:53:44.285Z,6.35
2023-03-29T14:56:13.789Z,2.15
2023-03-29T14:58:44.664Z,2.50
2023-03-29T15:01:21.781Z,1.88
2023-03-29T15:03:55.204Z,2.20
2023-03-29T15:06:24.004Z,2.10
2023-03-29T15:09:04.522Z,2.13
2023-03-29T15:11:34.409Z,2.17
2023-03-29T15:14:07.236Z,1.95
2023-03-29T15:16:37.565Z,2.05
2023-03-29T15:19:05.273Z,2.40
2023-03-29T15:21:35.423Z,2.10
2023-03-29T15:24:03.731Z,2.15
2023-03-29T15:26:32.536Z,2.33
2023-03-29T15:29:09.171Z,2.25
2023-03-29T15:31:38.112Z,1.63
2023-03-29T15:34:12.757Z,2.65
2023-03-29T15:36:44.012Z,2.65
2023-03-29T15:39:15.373Z,3.30
2023-03-29T15:41:43.586Z,2.90
2023-03-29T15:44:12.439Z,3.20
2023-03-29T15:46:39.818Z,3.08
2023-03-29T15:49:10.676Z,2.70
2023-03-29T15:51:38.093Z,3.38
2023-03-29T15:54:05.867Z,2.80
2023-03-29T15:56:43.538Z,3.60
2023-03-29T15:59:12.016Z,3.28
2023-03-29T16:01:39.503Z,2.83
2023-03-29T16:04:10.298Z,2.72
2023-03-29T16:06:37.954Z,3.47
2023-03-29T16:09:05.744Z,3.60
2023-03-29T16:11:33.279Z,3.33
2023-03-29T16:14:00.995Z,3.45
2023-03-29T16:16:28.452Z,3.17
2023-03-29T16:18:56.158Z,3.08
2023-03-29T16:21:23.736Z,3.25
2023-03-29T16:23:51.546Z,3.15
2023-03-29T16:26:18.877Z,3.40
2023-03-29T16:28:46.571Z,3.15
2023-03-29T16:31:14.002Z,2.97
2023-03-29T16:33:41.727Z,3.53
2023-03-29T16:36:10.578Z,3.30
2023-03-29T16:38:38.553Z,3.75
2023-03-29T16:41:06.196Z,3.33
2023-03-29T16:43:33.920Z,3.45
2023-03-29T16:46:01.814Z,3.20
2023-03-29T16:48:30.083Z,2.75
2023-03-29T16:50:57.484Z,2.30
2023-03-29T16:53:25.351Z,2.63
2023-03-29T16:55:52.799Z,2.67
2023-03-29T16:58:20.652Z,2.60
2023-03-29T17:00:48.620Z,2.55
2023-03-29T17:03:16.822Z,2.65
2023-03-29T17:05:48.134Z,2.65
2023-03-29T17:08:16.562Z,4.87
2023-03-29T17:10:44.282Z,2.97
2023-03-29T17:13:12.034Z,2.47
2023-03-29T17:15:39.810Z,2.55
2023-03-29T17:18:07.939Z,3.20
2023-03-29T17:20:38.090Z,2.72
2023-03-29T17:23:06.078Z,2.70
2023-03-29T17:25:33.561Z,2.58
2023-03-29T17:28:01.430Z,3.05
2023-03-29T17:30:28.938Z,2.50
2023-03-29T17:32:56.865Z,3.20
2023-03-29T17:35:24.310Z,2.92
2023-03-29T17:37:52.166Z,3.10
2023-03-29T17:40:19.492Z,2.97
2023-03-29T17:42:47.194Z,2.50
2023-03-29T17:45:15.250Z,2.40
2023-03-29T17:47:43.084Z,3.13
2023-03-29T17:50:11.260Z,3.47
2023-03-29T17:52:39.304Z,2.90
2023-03-29T17:55:10.068Z,4.50
2023-03-29T17:57:38.149Z,3.63
2023-03-29T18:00:06.761Z,3.30
2023-03-29T18:02:34.663Z,3.92
2023-03-29T18:05:02.453Z,3.33
2023-03-29T18:07:30.639Z,4.53
2023-03-29T18:09:58.403Z,5.82
2023-03-29T18:12:26.496Z,5.45
2023-03-29T18:14:54.403Z,5.40
2023-03-29T18:17:22.826Z,4.78
2023-03-29T18:19:50.340Z,4.20
2023-03-29T18:22:18.041Z,4.80
2023-03-29T18:24:45.525Z,4.65
2023-03-29T18:27:13.370Z,5.72
2023-03-29T18:29:40.776Z,5.30
2023-03-29T18:32:08.782Z,4.93
2023-03-29T18:34:36.412Z,4.65
2023-03-29T18:37:04.121Z,5.80
2023-03-29T18:39:31.618Z,5.57
2023-03-29T18:41:59.482Z,4.72
2023-03-29T18:44:27.030Z,4.65
2023-03-29T18:46:54.886Z,5.15
2023-03-29T18:49:24.091Z,4.10
2023-03-29T18:51:52.637Z,4.22
2023-03-29T18:54:19.992Z,4.30
2023-03-29T18:56:47.846Z,4.68
2023-03-29T18:59:15.868Z,4.38
2023-03-29T19:01:43.878Z,4.00
2023-03-29T19:04:12.412Z,3.85
2023-03-29T19:06:40.812Z,3.60
2023-03-29T19:09:08.179Z,3.83
2023-03-29T19:11:36.003Z,3.88
2023-03-29T19:14:04.087Z,3.75
2023-03-29T19:16:31.705Z,3.80
2023-03-29T19:18:59.066Z,3.72
2023-03-29T19:21:26.793Z,4.22
2023-03-29T19:23:54.191Z,3.88
2023-03-29T19:26:21.962Z,4.50
2023-03-29T19:28:49.374Z,4.32
2023-03-29T19:31:17.083Z,3.72
2023-03-29T19:33:44.515Z,4.60
2023-03-29T19:36:12.411Z,4.53
2023-03-29T19:38:39.905Z,4.97
2023-03-29T19:41:07.561Z,6.05
2023-03-29T19:43:35.114Z,6.47
2023-03-29T19:46:10.463Z,5.97
2023-03-29T19:48:38.575Z,5.72
2023-03-29T19:51:06.411Z,5.25
2023-03-29T19:53:33.843Z,5.38
2023-03-29T19:56:01.674Z,5.18
2023-03-29T19:58:29.484Z,6.38
2023-03-29T20:00:57.205Z,4.78
2023-03-29T20:03:27.782Z,5.95
2023-03-29T20:05:56.113Z,5.75
2023-03-29T20:08:23.887Z,5.60
2023-03-29T20:11:11.940Z,5.78
2023-03-29T20:13:41.455Z,6.15
2023-03-29T20:16:10.557Z,6.47
2023-03-29T20:18:38.253Z,7.22
2023-03-29T20:21:06.983Z,6.13
2023-03-29T20:23:34.932Z,6.25
2023-03-29T20:26:02.619Z,5.88
2023-03-29T20:28:30.031Z,6.60
2023-03-29T20:31:02.446Z,6.90
2023-03-29T20:35:57.913Z,6.18
2023-03-29T20:38:25.402Z,5.88
2023-03-29T20:40:54.502Z,5.13
2023-03-29T20:43:22.117Z,5.43
2023-03-29T20:45:53.423Z,5.07
2023-03-29T20:48:22.433Z,5.55
2023-03-29T20:50:50.462Z,4.82
2023-03-29T20:53:17.857Z,4.50
2023-03-29T20:55:46.014Z,5.78
2023-03-29T20:58:13.391Z,6.10
2023-03-29T21:00:41.079Z,5.07
2023-03-29T21:03:10.123Z,5.60
2023-03-29T21:05:44.056Z,5.85
2023-03-29T21:08:11.447Z,4.45
2023-03-29T21:10:39.747Z,5.38
2023-03-29T21:13:07.176Z,5.20
2023-03-29T21:15:34.898Z,5.40
2023-03-29T21:18:02.310Z,5.32
2023-03-29T21:20:30.153Z,5.90
2023-03-29T21:22:57.639Z,4.05
2023-03-29T21:25:25.287Z,4.45
2023-03-29T21:27:52.618Z,4.88
2023-03-29T21:30:20.578Z,5.38
2023-03-29T21:32:47.920Z,5.13
2023-03-29T21:35:15.774Z,4.22
2023-03-29T21:37:43.119Z,4.43
2023-03-29T21:40:11.214Z,4.88
2023-03-29T21:42:38.554Z,4.38
2023-03-29T21:45:06.488Z,4.57
2023-03-29T21:47:33.879Z,5.30
2023-03-29T21:50:01.709Z,4.55
2023-03-29T21:52:29.174Z,4.78
2023-03-29T21:54:57.045Z,4.10
2023-03-29T21:57:24.490Z,5.13
2023-03-29T21:59:52.466Z,5.05
2023-03-29T22:02:19.927Z,5.15
2023-03-29T22:04:47.752Z,5.57
2023-03-29T22:07:15.349Z,5.50
2023-03-29T22:09:43.057Z,5.70
2023-03-29T22:12:10.379Z,5.43
2023-03-29T22:14:38.183Z,5.72
2023-03-29T22:17:05.836Z,8.93
2023-03-29T22:19:36.690Z,6.20
2023-03-29T22:22:04.512Z,5.10
2023-03-29T22:24:32.180Z,5.63
2023-03-29T22:26:59.620Z,5.15
2023-03-29T22:29:27.287Z,5.20
2023-03-29T22:31:54.773Z,5.10
2023-03-29T22:34:22.395Z,5.20
2023-03-29T22:36:49.791Z,5.40
2023-03-29T22:39:17.499Z,5.28
2023-03-29T22:41:44.915Z,5.30
2023-03-29T22:44:12.718Z,5.55
2023-03-29T22:46:40.212Z,5.72
2023-03-29T22:49:07.914Z,5.68
2023-03-29T22:51:35.280Z,5.60
2023-03-29T22:54:03.190Z,5.13
2023-03-29T22:56:30.750Z,6.10
2023-03-29T22:58:58.456Z,6.00
2023-03-29T23:01:25.924Z,5.97
2023-03-29T23:03:53.743Z,6.38
2023-03-29T23:06:21.108Z,6.00
2023-03-29T23:08:48.770Z,5.47
2023-03-29T23:11:16.135Z,5.47
2023-03-29T23:13:43.954Z,7.00
2023-03-29T23:16:11.405Z,6.05
2023-03-29T23:18:39.157Z,6.10
2023-03-29T23:21:06.863Z,5.68
2023-03-29T23:23:34.892Z,5.53
2023-03-29T23:26:02.528Z,5.03
2023-03-29T23:28:30.342Z,6.00
2023-03-29T23:30:59.271Z,5.80
2023-03-29T23:33:27.599Z,5.53
2023-03-29T23:35:57.279Z,5.60
2023-03-29T23:38:25.068Z,4.90
2023-03-29T23:40:56.024Z,5.40
2023-03-29T23:43:23.700Z,4.97
2023-03-29T23:45:55.410Z,4.47
2023-03-29T23:48:23.478Z,4.82
2023-03-29T23:50:50.862Z,4.57
2023-03-29T23:53:18.793Z,6.05
2023-03-29T23:55:46.840Z,5.00
2023-03-29T23:58:14.959Z,4.57
